sensor_id;sensor_type;location;lat;lon;timestamp;temperature;humidity
13322;DHT22;6730;46.248;6.930;2023-09-30T00:01:53;19.80;99.90
13322;DHT22;6730;46.248;6.930;2023-09-30T00:04:18;19.70;99.90
13322;DHT22;6730;46.248;6.930;2023-09-30T00:06:44;19.60;99.90
13322;DHT22;6730;46.248;6.930;2023-09-30T00:09:10;19.60;99.90
13322;DHT22;6730;46.248;6.930;2023-09-30T00:11:37;19.50;99.90
13322;DHT22;6730;46.248;6.930;2023-09-30T00:14:02;19.60;99.90
13322;DHT22;6730;46.248;6.930;2023-09-30T00:16:29;19.50;99.90
13322;DHT22;6730;46.248;6.930;2023-09-30T00:18:56;19.40;99.90
13322;DHT22;6730;46.248;6.930;2023-09-30T00:21:23;19.40;99.90
13322;DHT22;6730;46.248;6.930;2023-09-30T00:23:49;19.10;99.90
13322;DHT22;6730;46.248;6.930;2023-09-30T00:26:15;18.80;99.90
13322;DHT22;6730;46.248;6.930;2023-09-30T00:28:41;18.70;99.90
13322;DHT22;6730;46.248;6.930;2023-09-30T00:31:07;18.90;99.90
13322;DHT22;6730;46.248;6.930;2023-09-30T00:33:36;19.10;99.90
13322;DHT22;6730;46.248;6.930;2023-09-30T00:36:09;19.00;99.90
13322;DHT22;6730;46.248;6.930;2023-09-30T00:38:36;19.00;99.90
13322;DHT22;6730;46.248;6.930;2023-09-30T00:41:01;19.00;99.90
13322;DHT22;6730;46.248;6.930;2023-09-30T00:43:27;18.90;99.90
13322;DHT22;6730;46.248;6.930;2023-09-30T00:46:05;18.80;99.90
13322;DHT22;6730;46.248;6.930;2023-09-30T00:48:33;18.80;99.90
13322;DHT22;6730;46.248;6.930;2023-09-30T00:50:59;18.60;99.90
13322;DHT22;6730;46.248;6.930;2023-09-30T00:53:25;18.90;99.90
13322;DHT22;6730;46.248;6.930;2023-09-30T00:55:52;18.80;99.90
13322;DHT22;6730;46.248;6.930;2023-09-30T00:58:20;18.90;99.90
13322;DHT22;6730;46.248;6.930;2023-09-30T01:00:46;18.90;99.90
13322;DHT22;6730;46.248;6.930;2023-09-30T01:03:12;18.80;99.90
13322;DHT22;6730;46.248;6.930;2023-09-30T01:05:38;18.70;99.90
13322;DHT22;6730;46.248;6.930;2023-09-30T01:08:04;18.70;99.90
13322;DHT22;6730;46.248;6.930;2023-09-30T01:10:30;18.70;99.90
13322;DHT22;6730;46.248;6.930;2023-09-30T01:12:55;18.80;99.90
13322;DHT22;6730;46.248;6.930;2023-09-30T01:15:21;18.90;99.90
13322;DHT22;6730;46.248;6.930;2023-09-30T01:17:47;18.70;99.90
13322;DHT22;6730;46.248;6.930;2023-09-30T01:20:14;19.00;99.90
13322;DHT22;6730;46.248;6.930;2023-09-30T01:22:42;19.10;99.90
13322;DHT22;6730;46.248;6.930;2023-09-30T01:25:10;19.30;99.90
13322;DHT22;6730;46.248;6.930;2023-09-30T01:27:36;19.40;99.90
13322;DHT22;6730;46.248;6.930;2023-09-30T01:30:02;19.40;99.90
13322;DHT22;6730;46.248;6.930;2023-09-30T01:32:31;19.30;99.90
13322;DHT22;6730;46.248;6.930;2023-09-30T01:34:57;19.20;99.90
13322;DHT22;6730;46.248;6.930;2023-09-30T01:37:22;18.90;99.90
13322;DHT22;6730;46.248;6.930;2023-09-30T01:39:51;18.90;99.90
13322;DHT22;6730;46.248;6.930;2023-09-30T01:42:20;18.90;99.90
13322;DHT22;6730;46.248;6.930;2023-09-30T01:44:46;18.90;99.90
13322;DHT22;6730;46.248;6.930;2023-09-30T01:47:11;18.80;99.90
13322;DHT22;6730;46.248;6.930;2023-09-30T01:49:37;18.90;99.90
13322;DHT22;6730;46.248;6.930;2023-09-30T01:52:03;18.80;99.90
13322;DHT22;6730;46.248;6.930;2023-09-30T01:54:29;18.80;99.90
13322;DHT22;6730;46.248;6.930;2023-09-30T01:56:55;18.80;99.90
13322;DHT22;6730;46.248;6.930;2023-09-30T01:59:21;18.80;99.90
13322;DHT22;6730;46.248;6.930;2023-09-30T02:01:49;18.80;99.90
13322;DHT22;6730;46.248;6.930;2023-09-30T02:04:15;18.90;99.90
13322;DHT22;6730;46.248;6.930;2023-09-30T02:06:44;19.10;99.90
13322;DHT22;6730;46.248;6.930;2023-09-30T02:09:09;19.10;99.90
13322;DHT22;6730;46.248;6.930;2023-09-30T02:11:36;19.10;99.90
13322;DHT22;6730;46.248;6.930;2023-09-30T02:14:03;19.10;99.90
13322;DHT22;6730;46.248;6.930;2023-09-30T02:16:31;19.20;99.90
13322;DHT22;6730;46.248;6.930;2023-09-30T02:18:57;19.20;99.90
13322;DHT22;6730;46.248;6.930;2023-09-30T02:21:23;19.00;99.90
13322;DHT22;6730;46.248;6.930;2023-09-30T02:23:49;18.90;99.90
13322;DHT22;6730;46.248;6.930;2023-09-30T02:26:15;19.00;99.90
13322;DHT22;6730;46.248;6.930;2023-09-30T02:28:41;19.00;99.90
13322;DHT22;6730;46.248;6.930;2023-09-30T02:31:07;18.90;99.90
13322;DHT22;6730;46.248;6.930;2023-09-30T02:33:33;18.80;99.90
13322;DHT22;6730;46.248;6.930;2023-09-30T02:36:03;18.80;99.90
13322;DHT22;6730;46.248;6.930;2023-09-30T02:38:31;18.70;99.90
13322;DHT22;6730;46.248;6.930;2023-09-30T02:40:57;18.50;99.90
13322;DHT22;6730;46.248;6.930;2023-09-30T02:43:23;18.70;99.90
13322;DHT22;6730;46.248;6.930;2023-09-30T02:45:48;18.90;99.90
13322;DHT22;6730;46.248;6.930;2023-09-30T02:48:14;19.00;99.90
13322;DHT22;6730;46.248;6.930;2023-09-30T02:50:43;18.90;99.90
13322;DHT22;6730;46.248;6.930;2023-09-30T02:53:12;18.80;99.90
13322;DHT22;6730;46.248;6.930;2023-09-30T02:55:39;18.90;99.90
13322;DHT22;6730;46.248;6.930;2023-09-30T02:58:05;18.80;99.90
13322;DHT22;6730;46.248;6.930;2023-09-30T03:00:30;18.70;99.90
13322;DHT22;6730;46.248;6.930;2023-09-30T03:03:00;18.80;99.90
13322;DHT22;6730;46.248;6.930;2023-09-30T03:05:27;18.90;99.90
13322;DHT22;6730;46.248;6.930;2023-09-30T03:07:53;18.80;99.90
13322;DHT22;6730;46.248;6.930;2023-09-30T03:10:21;18.60;99.90
13322;DHT22;6730;46.248;6.930;2023-09-30T03:12:52;18.50;99.90
13322;DHT22;6730;46.248;6.930;2023-09-30T03:15:18;18.50;99.90
13322;DHT22;6730;46.248;6.930;2023-09-30T03:17:44;18.60;99.90
13322;DHT22;6730;46.248;6.930;2023-09-30T03:20:11;18.50;99.90
13322;DHT22;6730;46.248;6.930;2023-09-30T03:22:41;18.30;99.90
13322;DHT22;6730;46.248;6.930;2023-09-30T03:25:12;18.30;99.90
13322;DHT22;6730;46.248;6.930;2023-09-30T03:27:38;18.40;99.90
13322;DHT22;6730;46.248;6.930;2023-09-30T03:30:08;18.30;99.90
13322;DHT22;6730;46.248;6.930;2023-09-30T03:32:34;18.40;99.90
13322;DHT22;6730;46.248;6.930;2023-09-30T03:35:07;18.30;99.90
13322;DHT22;6730;46.248;6.930;2023-09-30T03:37:36;18.40;99.90
13322;DHT22;6730;46.248;6.930;2023-09-30T03:40:03;18.40;99.90
13322;DHT22;6730;46.248;6.930;2023-09-30T03:42:38;18.30;99.90
13322;DHT22;6730;46.248;6.930;2023-09-30T03:45:06;18.10;99.90
13322;DHT22;6730;46.248;6.930;2023-09-30T03:47:35;18.00;99.90
13322;DHT22;6730;46.248;6.930;2023-09-30T03:50:01;18.00;99.90
13322;DHT22;6730;46.248;6.930;2023-09-30T03:52:29;18.00;99.90
13322;DHT22;6730;46.248;6.930;2023-09-30T03:54:55;18.10;99.90
13322;DHT22;6730;46.248;6.930;2023-09-30T03:57:20;18.10;99.90
13322;DHT22;6730;46.248;6.930;2023-09-30T03:59:46;17.80;99.90
13322;DHT22;6730;46.248;6.930;2023-09-30T04:02:12;17.70;99.90
13322;DHT22;6730;46.248;6.930;2023-09-30T04:04:40;17.70;99.90
13322;DHT22;6730;46.248;6.930;2023-09-30T04:07:05;17.80;99.90
13322;DHT22;6730;46.248;6.930;2023-09-30T04:09:32;17.70;99.90
13322;DHT22;6730;46.248;6.930;2023-09-30T04:11:58;17.60;99.90
13322;DHT22;6730;46.248;6.930;2023-09-30T04:14:24;17.50;99.90
13322;DHT22;6730;46.248;6.930;2023-09-30T04:16:50;17.70;99.90
13322;DHT22;6730;46.248;6.930;2023-09-30T04:19:16;17.70;99.90
13322;DHT22;6730;46.248;6.930;2023-09-30T04:21:42;17.70;99.90
13322;DHT22;6730;46.248;6.930;2023-09-30T04:24:08;17.80;99.90
13322;DHT22;6730;46.248;6.930;2023-09-30T04:26:34;17.70;99.90
13322;DHT22;6730;46.248;6.930;2023-09-30T04:29:00;17.70;99.90
13322;DHT22;6730;46.248;6.930;2023-09-30T04:31:28;17.90;99.90
13322;DHT22;6730;46.248;6.930;2023-09-30T04:33:54;17.80;99.90
13322;DHT22;6730;46.248;6.930;2023-09-30T04:36:20;17.90;99.90
13322;DHT22;6730;46.248;6.930;2023-09-30T04:38:47;17.90;99.90
13322;DHT22;6730;46.248;6.930;2023-09-30T04:41:12;17.90;99.90
13322;DHT22;6730;46.248;6.930;2023-09-30T04:43:41;17.90;99.90
13322;DHT22;6730;46.248;6.930;2023-09-30T04:46:09;18.00;99.90
13322;DHT22;6730;46.248;6.930;2023-09-30T04:48:35;18.00;99.90
13322;DHT22;6730;46.248;6.930;2023-09-30T04:51:01;18.30;99.90
13322;DHT22;6730;46.248;6.930;2023-09-30T04:53:30;18.30;99.90
13322;DHT22;6730;46.248;6.930;2023-09-30T04:55:56;18.40;99.90
13322;DHT22;6730;46.248;6.930;2023-09-30T04:58:21;18.30;99.90
13322;DHT22;6730;46.248;6.930;2023-09-30T05:00:49;18.40;99.90
13322;DHT22;6730;46.248;6.930;2023-09-30T05:03:14;18.60;99.90
13322;DHT22;6730;46.248;6.930;2023-09-30T05:05:41;18.80;99.90
13322;DHT22;6730;46.248;6.930;2023-09-30T05:08:07;18.90;99.90
13322;DHT22;6730;46.248;6.930;2023-09-30T05:10:32;19.00;99.90
13322;DHT22;6730;46.248;6.930;2023-09-30T05:12:59;19.10;99.90
13322;DHT22;6730;46.248;6.930;2023-09-30T05:15:24;19.00;99.90
13322;DHT22;6730;46.248;6.930;2023-09-30T05:17:51;18.90;99.90
13322;DHT22;6730;46.248;6.930;2023-09-30T05:20:17;18.80;99.90
13322;DHT22;6730;46.248;6.930;2023-09-30T05:22:43;18.80;99.90
13322;DHT22;6730;46.248;6.930;2023-09-30T05:25:16;18.80;99.90
13322;DHT22;6730;46.248;6.930;2023-09-30T05:27:42;18.90;99.90
13322;DHT22;6730;46.248;6.930;2023-09-30T05:30:08;18.90;99.90
13322;DHT22;6730;46.248;6.930;2023-09-30T05:32:36;18.90;99.90
13322;DHT22;6730;46.248;6.930;2023-09-30T05:35:05;19.00;99.90
13322;DHT22;6730;46.248;6.930;2023-09-30T05:37:31;19.00;99.90
13322;DHT22;6730;46.248;6.930;2023-09-30T05:39:57;18.90;99.90
13322;DHT22;6730;46.248;6.930;2023-09-30T05:42:23;18.80;99.90
13322;DHT22;6730;46.248;6.930;2023-09-30T05:44:48;17.90;99.90
13322;DHT22;6730;46.248;6.930;2023-09-30T05:47:14;17.90;99.90
13322;DHT22;6730;46.248;6.930;2023-09-30T05:49:41;18.20;99.90
13322;DHT22;6730;46.248;6.930;2023-09-30T05:52:07;18.40;99.90
13322;DHT22;6730;46.248;6.930;2023-09-30T05:54:33;18.00;99.90
13322;DHT22;6730;46.248;6.930;2023-09-30T05:56:58;18.10;99.90
13322;DHT22;6730;46.248;6.930;2023-09-30T05:59:26;17.80;99.90
13322;DHT22;6730;46.248;6.930;2023-09-30T06:01:53;17.60;99.90
13322;DHT22;6730;46.248;6.930;2023-09-30T06:04:36;17.80;99.90
13322;DHT22;6730;46.248;6.930;2023-09-30T06:07:02;18.20;99.90
13322;DHT22;6730;46.248;6.930;2023-09-30T06:09:27;18.40;99.90
13322;DHT22;6730;46.248;6.930;2023-09-30T06:11:56;18.80;99.90
13322;DHT22;6730;46.248;6.930;2023-09-30T06:14:21;19.00;99.90
13322;DHT22;6730;46.248;6.930;2023-09-30T06:16:47;19.20;99.90
13322;DHT22;6730;46.248;6.930;2023-09-30T06:19:13;19.30;99.90
13322;DHT22;6730;46.248;6.930;2023-09-30T06:21:38;19.40;99.90
13322;DHT22;6730;46.248;6.930;2023-09-30T06:24:05;19.40;99.90
13322;DHT22;6730;46.248;6.930;2023-09-30T06:26:31;19.30;99.90
13322;DHT22;6730;46.248;6.930;2023-09-30T06:28:56;19.30;99.90
13322;DHT22;6730;46.248;6.930;2023-09-30T06:31:22;19.20;99.90
13322;DHT22;6730;46.248;6.930;2023-09-30T06:33:48;19.30;99.90
13322;DHT22;6730;46.248;6.930;2023-09-30T06:36:14;19.50;99.90
13322;DHT22;6730;46.248;6.930;2023-09-30T06:38:40;19.60;99.90
13322;DHT22;6730;46.248;6.930;2023-09-30T06:41:09;19.70;99.90
13322;DHT22;6730;46.248;6.930;2023-09-30T06:43:34;19.80;99.90
13322;DHT22;6730;46.248;6.930;2023-09-30T06:46:07;19.40;99.90
13322;DHT22;6730;46.248;6.930;2023-09-30T06:48:35;18.70;99.90
13322;DHT22;6730;46.248;6.930;2023-09-30T06:51:01;18.80;99.90
13322;DHT22;6730;46.248;6.930;2023-09-30T06:53:27;19.00;99.90
13322;DHT22;6730;46.248;6.930;2023-09-30T06:55:53;19.20;99.90
13322;DHT22;6730;46.248;6.930;2023-09-30T06:58:19;19.00;99.90
13322;DHT22;6730;46.248;6.930;2023-09-30T07:00:50;19.00;99.90
13322;DHT22;6730;46.248;6.930;2023-09-30T07:03:17;18.70;99.90
13322;DHT22;6730;46.248;6.930;2023-09-30T07:05:45;18.40;99.90
13322;DHT22;6730;46.248;6.930;2023-09-30T07:08:10;18.20;99.90
13322;DHT22;6730;46.248;6.930;2023-09-30T07:10:36;18.10;99.90
13322;DHT22;6730;46.248;6.930;2023-09-30T07:13:03;18.00;99.90
13322;DHT22;6730;46.248;6.930;2023-09-30T07:15:29;18.10;99.90
13322;DHT22;6730;46.248;6.930;2023-09-30T07:17:55;18.10;99.90
13322;DHT22;6730;46.248;6.930;2023-09-30T07:20:21;18.30;99.90
13322;DHT22;6730;46.248;6.930;2023-09-30T07:22:48;18.30;99.90
13322;DHT22;6730;46.248;6.930;2023-09-30T07:25:14;18.40;99.90
13322;DHT22;6730;46.248;6.930;2023-09-30T07:27:43;18.60;99.90
13322;DHT22;6730;46.248;6.930;2023-09-30T07:30:11;18.60;99.90
13322;DHT22;6730;46.248;6.930;2023-09-30T07:32:38;18.70;99.90
13322;DHT22;6730;46.248;6.930;2023-09-30T07:35:04;18.70;99.90
13322;DHT22;6730;46.248;6.930;2023-09-30T07:37:29;18.90;99.90
13322;DHT22;6730;46.248;6.930;2023-09-30T07:39:55;19.70;99.90
13322;DHT22;6730;46.248;6.930;2023-09-30T07:42:21;20.10;99.90
13322;DHT22;6730;46.248;6.930;2023-09-30T07:44:48;20.50;99.90
13322;DHT22;6730;46.248;6.930;2023-09-30T07:47:14;20.60;99.90
13322;DHT22;6730;46.248;6.930;2023-09-30T07:49:40;20.40;99.90
13322;DHT22;6730;46.248;6.930;2023-09-30T07:52:06;20.30;99.90
13322;DHT22;6730;46.248;6.930;2023-09-30T07:54:31;20.60;99.90
13322;DHT22;6730;46.248;6.930;2023-09-30T07:56:57;21.00;99.90
13322;DHT22;6730;46.248;6.930;2023-09-30T07:59:24;21.30;99.90
13322;DHT22;6730;46.248;6.930;2023-09-30T08:01:51;21.30;99.90
13322;DHT22;6730;46.248;6.930;2023-09-30T08:04:18;20.70;99.90
13322;DHT22;6730;46.248;6.930;2023-09-30T08:06:44;20.70;99.90
13322;DHT22;6730;46.248;6.930;2023-09-30T08:09:12;21.40;99.90
13322;DHT22;6730;46.248;6.930;2023-09-30T08:11:38;21.00;99.90
13322;DHT22;6730;46.248;6.930;2023-09-30T08:14:04;20.90;99.90
13322;DHT22;6730;46.248;6.930;2023-09-30T08:16:35;21.10;99.90
13322;DHT22;6730;46.248;6.930;2023-09-30T08:19:02;21.20;99.90
13322;DHT22;6730;46.248;6.930;2023-09-30T08:21:29;21.60;99.90
13322;DHT22;6730;46.248;6.930;2023-09-30T08:23:54;22.10;99.90
13322;DHT22;6730;46.248;6.930;2023-09-30T08:26:20;22.20;99.90
13322;DHT22;6730;46.248;6.930;2023-09-30T08:28:46;22.10;99.90
13322;DHT22;6730;46.248;6.930;2023-09-30T08:31:11;22.00;99.90
13322;DHT22;6730;46.248;6.930;2023-09-30T08:33:37;21.80;99.90
13322;DHT22;6730;46.248;6.930;2023-09-30T08:36:05;22.00;99.90
13322;DHT22;6730;46.248;6.930;2023-09-30T08:38:39;22.30;99.90
13322;DHT22;6730;46.248;6.930;2023-09-30T08:41:06;22.70;99.90
13322;DHT22;6730;46.248;6.930;2023-09-30T08:43:37;22.70;99.90
13322;DHT22;6730;46.248;6.930;2023-09-30T08:46:04;23.20;99.90
13322;DHT22;6730;46.248;6.930;2023-09-30T08:48:33;23.50;99.90
13322;DHT22;6730;46.248;6.930;2023-09-30T08:50:59;23.80;99.90
13322;DHT22;6730;46.248;6.930;2023-09-30T08:53:26;23.70;99.90
13322;DHT22;6730;46.248;6.930;2023-09-30T08:55:56;23.60;99.90
13322;DHT22;6730;46.248;6.930;2023-09-30T08:58:27;22.80;99.90
13322;DHT22;6730;46.248;6.930;2023-09-30T09:00:53;22.80;99.90
13322;DHT22;6730;46.248;6.930;2023-09-30T09:03:20;23.10;99.90
13322;DHT22;6730;46.248;6.930;2023-09-30T09:05:50;23.70;99.90
13322;DHT22;6730;46.248;6.930;2023-09-30T09:08:19;24.30;99.90
13322;DHT22;6730;46.248;6.930;2023-09-30T09:11:00;24.30;99.90
13322;DHT22;6730;46.248;6.930;2023-09-30T09:13:28;24.40;99.90
13322;DHT22;6730;46.248;6.930;2023-09-30T09:16:11;23.50;99.90
13322;DHT22;6730;46.248;6.930;2023-09-30T09:18:36;23.30;99.90
13322;DHT22;6730;46.248;6.930;2023-09-30T09:21:18;23.60;99.90
13322;DHT22;6730;46.248;6.930;2023-09-30T09:23:49;24.20;99.90
13322;DHT22;6730;46.248;6.930;2023-09-30T09:26:28;25.00;99.90
13322;DHT22;6730;46.248;6.930;2023-09-30T09:29:03;24.60;99.90
13322;DHT22;6730;46.248;6.930;2023-09-30T09:31:32;24.40;99.90
13322;DHT22;6730;46.248;6.930;2023-09-30T09:34:00;24.90;99.90
13322;DHT22;6730;46.248;6.930;2023-09-30T09:36:43;24.60;99.90
13322;DHT22;6730;46.248;6.930;2023-09-30T09:39:10;24.90;99.90
13322;DHT22;6730;46.248;6.930;2023-09-30T09:41:54;24.60;99.90
13322;DHT22;6730;46.248;6.930;2023-09-30T09:44:22;23.80;99.90
13322;DHT22;6730;46.248;6.930;2023-09-30T09:46:48;23.00;99.90
13322;DHT22;6730;46.248;6.930;2023-09-30T09:49:18;21.90;99.90
13322;DHT22;6730;46.248;6.930;2023-09-30T09:51:46;22.00;99.90
13322;DHT22;6730;46.248;6.930;2023-09-30T09:54:12;22.50;99.90
13322;DHT22;6730;46.248;6.930;2023-09-30T09:56:39;23.10;99.90
13322;DHT22;6730;46.248;6.930;2023-09-30T09:59:05;23.10;99.90
13322;DHT22;6730;46.248;6.930;2023-09-30T10:01:33;22.80;99.90
13322;DHT22;6730;46.248;6.930;2023-09-30T10:04:05;24.10;99.90
13322;DHT22;6730;46.248;6.930;2023-09-30T10:06:31;24.70;99.90
13322;DHT22;6730;46.248;6.930;2023-09-30T10:09:06;25.00;99.90
13322;DHT22;6730;46.248;6.930;2023-09-30T10:11:33;24.80;99.90
13322;DHT22;6730;46.248;6.930;2023-09-30T10:13:59;24.80;99.90
13322;DHT22;6730;46.248;6.930;2023-09-30T10:21:35;24.00;99.90
13322;DHT22;6730;46.248;6.930;2023-09-30T10:29:46;24.50;99.90
13322;DHT22;6730;46.248;6.930;2023-09-30T10:32:12;23.70;99.90
13322;DHT22;6730;46.248;6.930;2023-09-30T10:34:39;23.50;99.90
13322;DHT22;6730;46.248;6.930;2023-09-30T10:37:23;23.30;99.90
13322;DHT22;6730;46.248;6.930;2023-09-30T10:39:57;23.90;99.90
13322;DHT22;6730;46.248;6.930;2023-09-30T10:42:46;24.00;99.90
13322;DHT22;6730;46.248;6.930;2023-09-30T10:50:58;24.00;99.90
13322;DHT22;6730;46.248;6.930;2023-09-30T10:53:26;23.40;99.90
13322;DHT22;6730;46.248;6.930;2023-09-30T10:56:00;22.90;99.90
13322;DHT22;6730;46.248;6.930;2023-09-30T10:58:43;23.30;99.90
13322;DHT22;6730;46.248;6.930;2023-09-30T11:01:09;24.10;99.90
13322;DHT22;6730;46.248;6.930;2023-09-30T11:03:35;24.00;99.90
13322;DHT22;6730;46.248;6.930;2023-09-30T11:06:02;24.50;99.90
13322;DHT22;6730;46.248;6.930;2023-09-30T11:08:30;23.70;99.90
13322;DHT22;6730;46.248;6.930;2023-09-30T11:10:56;24.10;99.90
13322;DHT22;6730;46.248;6.930;2023-09-30T11:13:22;23.80;99.90
13322;DHT22;6730;46.248;6.930;2023-09-30T11:15:59;23.40;99.90
13322;DHT22;6730;46.248;6.930;2023-09-30T11:18:25;23.10;99.90
13322;DHT22;6730;46.248;6.930;2023-09-30T11:21:04;22.80;99.90
13322;DHT22;6730;46.248;6.930;2023-09-30T11:23:30;22.10;99.90
13322;DHT22;6730;46.248;6.930;2023-09-30T11:25:56;22.30;99.90
13322;DHT22;6730;46.248;6.930;2023-09-30T11:28:22;22.20;99.90
13322;DHT22;6730;46.248;6.930;2023-09-30T11:30:58;22.70;99.90
13322;DHT22;6730;46.248;6.930;2023-09-30T11:33:24;23.50;99.90
13322;DHT22;6730;46.248;6.930;2023-09-30T11:36:00;24.00;99.90
13322;DHT22;6730;46.248;6.930;2023-09-30T11:38:28;23.70;99.90
13322;DHT22;6730;46.248;6.930;2023-09-30T11:41:06;23.60;99.90
13322;DHT22;6730;46.248;6.930;2023-09-30T11:43:35;23.80;99.90
13322;DHT22;6730;46.248;6.930;2023-09-30T11:46:08;23.60;99.90
13322;DHT22;6730;46.248;6.930;2023-09-30T11:48:35;23.50;99.90
13322;DHT22;6730;46.248;6.930;2023-09-30T11:51:01;23.40;99.90
13322;DHT22;6730;46.248;6.930;2023-09-30T11:53:31;23.60;99.90
13322;DHT22;6730;46.248;6.930;2023-09-30T11:55:59;23.80;99.90
13322;DHT22;6730;46.248;6.930;2023-09-30T11:58:28;23.50;99.90
13322;DHT22;6730;46.248;6.930;2023-09-30T12:00:58;23.00;99.90
13322;DHT22;6730;46.248;6.930;2023-09-30T12:03:25;23.00;99.90
13322;DHT22;6730;46.248;6.930;2023-09-30T12:05:53;22.80;99.90
13322;DHT22;6730;46.248;6.930;2023-09-30T12:08:22;22.40;99.90
13322;DHT22;6730;46.248;6.930;2023-09-30T12:10:48;22.10;99.90
13322;DHT22;6730;46.248;6.930;2023-09-30T12:13:14;21.80;99.90
13322;DHT22;6730;46.248;6.930;2023-09-30T12:15:41;21.60;99.90
13322;DHT22;6730;46.248;6.930;2023-09-30T12:18:07;21.70;99.90
13322;DHT22;6730;46.248;6.930;2023-09-30T12:20:32;21.70;99.90
13322;DHT22;6730;46.248;6.930;2023-09-30T12:22:58;21.80;99.90
13322;DHT22;6730;46.248;6.930;2023-09-30T12:25:24;21.80;99.90
13322;DHT22;6730;46.248;6.930;2023-09-30T12:27:50;21.90;99.90
13322;DHT22;6730;46.248;6.930;2023-09-30T12:30:16;21.90;99.90
13322;DHT22;6730;46.248;6.930;2023-09-30T12:32:45;21.70;99.90
13322;DHT22;6730;46.248;6.930;2023-09-30T12:35:11;21.70;99.90
13322;DHT22;6730;46.248;6.930;2023-09-30T12:37:37;21.60;99.90
13322;DHT22;6730;46.248;6.930;2023-09-30T12:40:05;21.60;99.90
13322;DHT22;6730;46.248;6.930;2023-09-30T12:42:32;21.70;99.90
13322;DHT22;6730;46.248;6.930;2023-09-30T12:45:00;21.70;99.90
13322;DHT22;6730;46.248;6.930;2023-09-30T12:47:26;21.80;99.90
13322;DHT22;6730;46.248;6.930;2023-09-30T12:49:52;21.80;99.90
13322;DHT22;6730;46.248;6.930;2023-09-30T12:52:20;21.90;99.90
13322;DHT22;6730;46.248;6.930;2023-09-30T12:54:45;22.00;99.90
13322;DHT22;6730;46.248;6.930;2023-09-30T12:57:12;21.80;99.90
13322;DHT22;6730;46.248;6.930;2023-09-30T12:59:39;21.60;99.90
13322;DHT22;6730;46.248;6.930;2023-09-30T13:02:04;21.50;99.90
13322;DHT22;6730;46.248;6.930;2023-09-30T13:04:31;21.40;99.90
13322;DHT22;6730;46.248;6.930;2023-09-30T13:07:01;21.50;99.90
13322;DHT22;6730;46.248;6.930;2023-09-30T13:09:26;21.20;99.90
13322;DHT22;6730;46.248;6.930;2023-09-30T13:11:52;21.20;99.90
13322;DHT22;6730;46.248;6.930;2023-09-30T13:14:17;21.50;99.90
13322;DHT22;6730;46.248;6.930;2023-09-30T13:16:44;21.50;99.90
13322;DHT22;6730;46.248;6.930;2023-09-30T13:19:09;21.40;99.90
13322;DHT22;6730;46.248;6.930;2023-09-30T13:21:35;21.40;99.90
13322;DHT22;6730;46.248;6.930;2023-09-30T13:24:01;21.30;99.90
13322;DHT22;6730;46.248;6.930;2023-09-30T13:26:26;20.90;99.90
13322;DHT22;6730;46.248;6.930;2023-09-30T13:28:52;20.60;99.90
13322;DHT22;6730;46.248;6.930;2023-09-30T13:31:18;20.30;99.90
13322;DHT22;6730;46.248;6.930;2023-09-30T13:33:43;20.20;99.90
13322;DHT22;6730;46.248;6.930;2023-09-30T13:36:09;20.20;99.90
13322;DHT22;6730;46.248;6.930;2023-09-30T13:38:35;20.10;99.90
13322;DHT22;6730;46.248;6.930;2023-09-30T13:41:01;20.00;99.90
13322;DHT22;6730;46.248;6.930;2023-09-30T13:43:28;19.90;99.90
13322;DHT22;6730;46.248;6.930;2023-09-30T13:45:54;20.00;99.90
13322;DHT22;6730;46.248;6.930;2023-09-30T13:48:20;20.00;99.90
13322;DHT22;6730;46.248;6.930;2023-09-30T13:50:45;20.00;99.90
13322;DHT22;6730;46.248;6.930;2023-09-30T13:53:11;20.10;99.90
13322;DHT22;6730;46.248;6.930;2023-09-30T13:55:39;20.10;99.90
13322;DHT22;6730;46.248;6.930;2023-09-30T13:58:05;20.20;99.90
13322;DHT22;6730;46.248;6.930;2023-09-30T14:00:31;20.20;99.90
13322;DHT22;6730;46.248;6.930;2023-09-30T14:02:57;20.00;99.90
13322;DHT22;6730;46.248;6.930;2023-09-30T14:05:24;20.00;99.90
13322;DHT22;6730;46.248;6.930;2023-09-30T14:07:50;20.00;99.90
13322;DHT22;6730;46.248;6.930;2023-09-30T14:10:16;19.80;99.90
13322;DHT22;6730;46.248;6.930;2023-09-30T14:12:42;19.80;99.90
13322;DHT22;6730;46.248;6.930;2023-09-30T14:15:08;19.90;99.90
13322;DHT22;6730;46.248;6.930;2023-09-30T14:17:35;19.80;99.90
13322;DHT22;6730;46.248;6.930;2023-09-30T14:20:01;19.80;99.90
13322;DHT22;6730;46.248;6.930;2023-09-30T14:22:26;19.90;99.90
13322;DHT22;6730;46.248;6.930;2023-09-30T14:24:52;19.90;99.90
13322;DHT22;6730;46.248;6.930;2023-09-30T14:27:18;19.90;99.90
13322;DHT22;6730;46.248;6.930;2023-09-30T14:29:45;19.80;99.90
13322;DHT22;6730;46.248;6.930;2023-09-30T14:32:11;19.90;99.90
13322;DHT22;6730;46.248;6.930;2023-09-30T14:34:37;20.00;99.90
13322;DHT22;6730;46.248;6.930;2023-09-30T14:37:02;20.20;99.90
13322;DHT22;6730;46.248;6.930;2023-09-30T14:39:28;20.20;99.90
13322;DHT22;6730;46.248;6.930;2023-09-30T14:41:54;20.10;99.90
13322;DHT22;6730;46.248;6.930;2023-09-30T14:44:20;20.20;99.90
13322;DHT22;6730;46.248;6.930;2023-09-30T14:46:48;20.20;99.90
13322;DHT22;6730;46.248;6.930;2023-09-30T14:49:14;20.20;99.90
13322;DHT22;6730;46.248;6.930;2023-09-30T14:51:40;20.20;99.90
13322;DHT22;6730;46.248;6.930;2023-09-30T14:54:06;20.20;99.90
13322;DHT22;6730;46.248;6.930;2023-09-30T14:56:32;20.50;99.90
13322;DHT22;6730;46.248;6.930;2023-09-30T14:58:58;20.70;99.90
13322;DHT22;6730;46.248;6.930;2023-09-30T15:01:23;20.80;99.90
13322;DHT22;6730;46.248;6.930;2023-09-30T15:03:49;21.30;99.90
13322;DHT22;6730;46.248;6.930;2023-09-30T15:06:15;21.70;99.90
13322;DHT22;6730;46.248;6.930;2023-09-30T15:08:40;21.90;99.90
13322;DHT22;6730;46.248;6.930;2023-09-30T15:11:13;21.80;99.90
13322;DHT22;6730;46.248;6.930;2023-09-30T15:13:40;22.00;99.90
13322;DHT22;6730;46.248;6.930;2023-09-30T15:16:16;22.20;99.90
13322;DHT22;6730;46.248;6.930;2023-09-30T15:18:42;22.30;99.90
13322;DHT22;6730;46.248;6.930;2023-09-30T15:21:07;22.20;99.90
13322;DHT22;6730;46.248;6.930;2023-09-30T15:23:33;22.30;99.90
13322;DHT22;6730;46.248;6.930;2023-09-30T15:25:59;21.90;99.90
13322;DHT22;6730;46.248;6.930;2023-09-30T15:28:24;21.90;99.90
13322;DHT22;6730;46.248;6.930;2023-09-30T15:30:53;22.20;99.90
13322;DHT22;6730;46.248;6.930;2023-09-30T15:33:19;22.40;99.90
13322;DHT22;6730;46.248;6.930;2023-09-30T15:35:44;22.40;99.90
13322;DHT22;6730;46.248;6.930;2023-09-30T15:38:10;22.20;99.90
13322;DHT22;6730;46.248;6.930;2023-09-30T15:40:54;22.10;99.90
13322;DHT22;6730;46.248;6.930;2023-09-30T15:43:23;21.80;99.90
13322;DHT22;6730;46.248;6.930;2023-09-30T15:45:50;21.70;99.90
13322;DHT22;6730;46.248;6.930;2023-09-30T15:48:16;21.60;99.90
13322;DHT22;6730;46.248;6.930;2023-09-30T15:50:42;21.50;99.90
13322;DHT22;6730;46.248;6.930;2023-09-30T15:53:08;21.60;99.90
13322;DHT22;6730;46.248;6.930;2023-09-30T15:55:33;21.30;99.90
13322;DHT22;6730;46.248;6.930;2023-09-30T15:57:59;21.00;99.90
13322;DHT22;6730;46.248;6.930;2023-09-30T16:00:24;21.10;99.90
13322;DHT22;6730;46.248;6.930;2023-09-30T16:02:51;21.10;99.90